sensor_id;sensor_type;location;lat;lon;timestamp;pressure;altitude;pressure_sealevel;temperature
19061;BMP280;9663;48.996;8.334;2022-07-26T00:01:26;100043.53;;;28.45
19061;BMP280;9663;48.996;8.334;2022-07-26T00:03:52;100040.91;;;28.45
19061;BMP280;9663;48.996;8.334;2022-07-26T00:06:18;100050.66;;;28.43
19061;BMP280;9663;48.996;8.334;2022-07-26T00:08:44;100045.56;;;28.41
19061;BMP280;9663;48.996;8.334;2022-07-26T00:11:10;100054.34;;;28.40
19061;BMP280;9663;48.996;8.334;2022-07-26T00:13:35;100060.38;;;28.41
19061;BMP280;9663;48.996;8.334;2022-07-26T00:16:02;100062.06;;;28.42
19061;BMP280;9663;48.996;8.334;2022-07-26T00:18:29;100061.09;;;28.43
19061;BMP280;9663;48.996;8.334;2022-07-26T00:20:55;100064.66;;;28.42
19061;BMP280;9663;48.996;8.334;2022-07-26T00:23:21;100048.16;;;28.41
19061;BMP280;9663;48.996;8.334;2022-07-26T00:25:47;100056.97;;;28.40
19061;BMP280;9663;48.996;8.334;2022-07-26T00:28:12;100055.28;;;28.39
19061;BMP280;9663;48.996;8.334;2022-07-26T00:30:38;100061.31;;;28.40
19061;BMP280;9663;48.996;8.334;2022-07-26T00:33:05;100068.31;;;28.39
19061;BMP280;9663;48.996;8.334;2022-07-26T00:35:31;100073.66;;;28.38
19061;BMP280;9663;48.996;8.334;2022-07-26T00:37:58;100069.53;;;28.36
19061;BMP280;9663;48.996;8.334;2022-07-26T00:40:24;100071.41;;;28.34
19061;BMP280;9663;48.996;8.334;2022-07-26T00:42:49;100071.69;;;28.31
19061;BMP280;9663;48.996;8.334;2022-07-26T00:45:16;100079.72;;;28.28
19061;BMP280;9663;48.996;8.334;2022-07-26T00:47:43;100083.28;;;28.27
19061;BMP280;9663;48.996;8.334;2022-07-26T00:50:14;100085.06;;;28.26
19061;BMP280;9663;48.996;8.334;2022-07-26T00:52:47;100084.47;;;28.23
19061;BMP280;9663;48.996;8.334;2022-07-26T00:55:15;100080.44;;;28.19
19061;BMP280;9663;48.996;8.334;2022-07-26T00:57:42;100084.97;;;28.17
19061;BMP280;9663;48.996;8.334;2022-07-26T01:00:21;100089.69;;;28.12
19061;BMP280;9663;48.996;8.334;2022-07-26T01:02:48;100096.00;;;28.09
19061;BMP280;9663;48.996;8.334;2022-07-26T01:05:15;100095.25;;;28.07
19061;BMP280;9663;48.996;8.334;2022-07-26T01:07:42;100099.97;;;28.02
19061;BMP280;9663;48.996;8.334;2022-07-26T01:10:10;100104.72;;;27.97
19061;BMP280;9663;48.996;8.334;2022-07-26T01:12:41;100103.31;;;27.94
19061;BMP280;9663;48.996;8.334;2022-07-26T01:15:09;100098.31;;;27.91
19061;BMP280;9663;48.996;8.334;2022-07-26T01:17:35;100093.22;;;27.89
19061;BMP280;9663;48.996;8.334;2022-07-26T01:20:01;100107.09;;;27.90
19061;BMP280;9663;48.996;8.334;2022-07-26T01:22:27;100108.97;;;27.88
19061;BMP280;9663;48.996;8.334;2022-07-26T01:24:53;100101.41;;;27.85
19061;BMP280;9663;48.996;8.334;2022-07-26T01:27:19;100093.81;;;27.82
19061;BMP280;9663;48.996;8.334;2022-07-26T01:29:45;100111.47;;;27.78
19061;BMP280;9663;48.996;8.334;2022-07-26T01:32:11;100114.41;;;27.74
19061;BMP280;9663;48.996;8.334;2022-07-26T01:34:36;100109.78;;;27.66
19061;BMP280;9663;48.996;8.334;2022-07-26T01:37:02;100117.47;;;27.57
19061;BMP280;9663;48.996;8.334;2022-07-26T01:39:28;100108.69;;;27.47
19061;BMP280;9663;48.996;8.334;2022-07-26T01:41:54;100107.59;;;27.39
19061;BMP280;9663;48.996;8.334;2022-07-26T01:44:22;100116.66;;;27.33
19061;BMP280;9663;48.996;8.334;2022-07-26T01:46:47;100110.03;;;27.29
19061;BMP280;9663;48.996;8.334;2022-07-26T01:49:13;100109.66;;;27.23
19061;BMP280;9663;48.996;8.334;2022-07-26T01:51:39;100105.75;;;27.17
19061;BMP280;9663;48.996;8.334;2022-07-26T01:54:05;100115.53;;;27.14
19061;BMP280;9663;48.996;8.334;2022-07-26T01:56:31;100112.22;;;27.12
19061;BMP280;9663;48.996;8.334;2022-07-26T01:58:57;100109.72;;;27.10
19061;BMP280;9663;48.996;8.334;2022-07-26T02:01:23;100114.09;;;27.10
19061;BMP280;9663;48.996;8.334;2022-07-26T02:03:48;100124.63;;;27.08
19061;BMP280;9663;48.996;8.334;2022-07-26T02:06:14;100129.81;;;27.08
19061;BMP280;9663;48.996;8.334;2022-07-26T02:08:40;100125.59;;;27.08
19061;BMP280;9663;48.996;8.334;2022-07-26T02:11:05;100123.91;;;27.07
19061;BMP280;9663;48.996;8.334;2022-07-26T02:13:38;100131.81;;;27.05
19061;BMP280;9663;48.996;8.334;2022-07-26T02:16:10;100132.91;;;27.03
19061;BMP280;9663;48.996;8.334;2022-07-26T02:18:37;100136.44;;;27.02
19061;BMP280;9663;48.996;8.334;2022-07-26T02:21:06;100133.00;;;27.01
19061;BMP280;9663;48.996;8.334;2022-07-26T02:23:33;100136.44;;;27.02
19061;BMP280;9663;48.996;8.334;2022-07-26T02:25:59;100134.97;;;26.98
19061;BMP280;9663;48.996;8.334;2022-07-26T02:28:25;100136.88;;;26.96
19061;BMP280;9663;48.996;8.334;2022-07-26T02:30:51;100134.38;;;26.94
19061;BMP280;9663;48.996;8.334;2022-07-26T02:33:17;100135.34;;;26.93
19061;BMP280;9663;48.996;8.334;2022-07-26T02:35:44;100137.22;;;26.91
19061;BMP280;9663;48.996;8.334;2022-07-26T02:38:12;100142.53;;;26.90
19061;BMP280;9663;48.996;8.334;2022-07-26T02:40:39;100130.44;;;26.89
19061;BMP280;9663;48.996;8.334;2022-07-26T02:43:08;100133.97;;;26.88
19061;BMP280;9663;48.996;8.334;2022-07-26T02:45:34;100133.34;;;26.84
19061;BMP280;9663;48.996;8.334;2022-07-26T02:48:00;100134.41;;;26.82
19061;BMP280;9663;48.996;8.334;2022-07-26T02:50:28;100123.28;;;26.80
19061;BMP280;9663;48.996;8.334;2022-07-26T02:52:55;100128.00;;;26.75
19061;BMP280;9663;48.996;8.334;2022-07-26T02:55:24;100136.94;;;26.71
19061;BMP280;9663;48.996;8.334;2022-07-26T02:57:50;100138.09;;;26.67
19061;BMP280;9663;48.996;8.334;2022-07-26T03:00:21;100144.34;;;26.64
19061;BMP280;9663;48.996;8.334;2022-07-26T03:02:49;100140.31;;;26.61
19061;BMP280;9663;48.996;8.334;2022-07-26T03:05:16;100131.78;;;26.59
19061;BMP280;9663;48.996;8.334;2022-07-26T03:07:42;100123.38;;;26.55
19061;BMP280;9663;48.996;8.334;2022-07-26T03:10:08;100132.22;;;26.53
19061;BMP280;9663;48.996;8.334;2022-07-26T03:12:34;100133.38;;;26.49
19061;BMP280;9663;48.996;8.334;2022-07-26T03:14:59;100141.19;;;26.49
19061;BMP280;9663;48.996;8.334;2022-07-26T03:17:25;100137.00;;;26.46
19061;BMP280;9663;48.996;8.334;2022-07-26T03:19:51;100140.78;;;26.42
19061;BMP280;9663;48.996;8.334;2022-07-26T03:22:17;100140.03;;;26.40
19061;BMP280;9663;48.996;8.334;2022-07-26T03:24:43;100136.91;;;26.35
19061;BMP280;9663;48.996;8.334;2022-07-26T03:27:08;100134.66;;;26.31
19061;BMP280;9663;48.996;8.334;2022-07-26T03:29:34;100143.59;;;26.27
19061;BMP280;9663;48.996;8.334;2022-07-26T03:32:00;100134.25;;;26.24
19061;BMP280;9663;48.996;8.334;2022-07-26T03:34:26;100136.41;;;26.18
19061;BMP280;9663;48.996;8.334;2022-07-26T03:36:51;100141.00;;;26.15
19061;BMP280;9663;48.996;8.334;2022-07-26T03:39:17;100133.50;;;26.10
19061;BMP280;9663;48.996;8.334;2022-07-26T03:41:43;100139.25;;;26.03
19061;BMP280;9663;48.996;8.334;2022-07-26T03:44:08;100149.34;;;25.95
19061;BMP280;9663;48.996;8.334;2022-07-26T03:46:34;100152.34;;;25.89
19061;BMP280;9663;48.996;8.334;2022-07-26T03:49:00;100154.41;;;25.84
19061;BMP280;9663;48.996;8.334;2022-07-26T03:51:25;100150.47;;;25.78
19061;BMP280;9663;48.996;8.334;2022-07-26T03:53:51;100154.19;;;25.75
19061;BMP280;9663;48.996;8.334;2022-07-26T03:56:17;100154.44;;;25.72
19061;BMP280;9663;48.996;8.334;2022-07-26T03:59:04;100153.78;;;25.68
19061;BMP280;9663;48.996;8.334;2022-07-26T04:01:32;100154.72;;;25.67
19061;BMP280;9663;48.996;8.334;2022-07-26T04:03:59;100150.56;;;25.65
19061;BMP280;9663;48.996;8.334;2022-07-26T04:06:26;100156.69;;;25.64
19061;BMP280;9663;48.996;8.334;2022-07-26T04:08:52;100159.41;;;25.62
19061;BMP280;9663;48.996;8.334;2022-07-26T04:11:18;100163.84;;;25.60
19061;BMP280;9663;48.996;8.334;2022-07-26T04:13:44;100167.56;;;25.56
19061;BMP280;9663;48.996;8.334;2022-07-26T04:16:10;100176.28;;;25.55
19061;BMP280;9663;48.996;8.334;2022-07-26T04:18:36;100176.28;;;25.55
19061;BMP280;9663;48.996;8.334;2022-07-26T04:21:02;100181.34;;;25.57
19061;BMP280;9663;48.996;8.334;2022-07-26T04:23:28;100182.31;;;25.56
19061;BMP280;9663;48.996;8.334;2022-07-26T04:25:54;100178.03;;;25.55
19061;BMP280;9663;48.996;8.334;2022-07-26T04:28:20;100176.28;;;25.55
19061;BMP280;9663;48.996;8.334;2022-07-26T04:30:45;100185.72;;;25.56
19061;BMP280;9663;48.996;8.334;2022-07-26T04:33:11;100178.13;;;25.53
19061;BMP280;9663;48.996;8.334;2022-07-26T04:35:37;100182.59;;;25.51
19061;BMP280;9663;48.996;8.334;2022-07-26T04:38:02;100185.28;;;25.50
19061;BMP280;9663;48.996;8.334;2022-07-26T04:40:29;100181.97;;;25.48
19061;BMP280;9663;48.996;8.334;2022-07-26T04:42:59;100186.25;;;25.49
19061;BMP280;9663;48.996;8.334;2022-07-26T04:45:26;100199.22;;;25.49
19061;BMP280;9663;48.996;8.334;2022-07-26T04:47:52;100199.13;;;25.50
19061;BMP280;9663;48.996;8.334;2022-07-26T04:50:20;100202.56;;;25.51
19061;BMP280;9663;48.996;8.334;2022-07-26T04:52:50;100207.66;;;25.52
19061;BMP280;9663;48.996;8.334;2022-07-26T04:55:17;100209.28;;;25.53
19061;BMP280;9663;48.996;8.334;2022-07-26T04:57:44;100204.84;;;25.55
19061;BMP280;9663;48.996;8.334;2022-07-26T05:00:12;100206.41;;;25.58
19061;BMP280;9663;48.996;8.334;2022-07-26T05:02:38;100202.88;;;25.59
19061;BMP280;9663;48.996;8.334;2022-07-26T05:05:05;100210.28;;;25.65
19061;BMP280;9663;48.996;8.334;2022-07-26T05:07:43;100212.69;;;25.68
19061;BMP280;9663;48.996;8.334;2022-07-26T05:10:10;100220.19;;;25.72
19061;BMP280;9663;48.996;8.334;2022-07-26T05:12:36;100227.78;;;25.75
19061;BMP280;9663;48.996;8.334;2022-07-26T05:15:02;100224.22;;;25.76
19061;BMP280;9663;48.996;8.334;2022-07-26T05:17:28;100221.53;;;25.77
19061;BMP280;9663;48.996;8.334;2022-07-26T05:19:54;100227.69;;;25.77
19061;BMP280;9663;48.996;8.334;2022-07-26T05:22:20;100232.22;;;25.73
19061;BMP280;9663;48.996;8.334;2022-07-26T05:24:45;100240.34;;;25.69
19061;BMP280;9663;48.996;8.334;2022-07-26T05:27:11;100246.66;;;25.65
19061;BMP280;9663;48.996;8.334;2022-07-26T05:29:37;100241.75;;;25.60
19061;BMP280;9663;48.996;8.334;2022-07-26T05:32:03;100242.84;;;25.56
19061;BMP280;9663;48.996;8.334;2022-07-26T05:34:28;100249.72;;;25.57
19061;BMP280;9663;48.996;8.334;2022-07-26T05:36:54;100246.19;;;25.58
19061;BMP280;9663;48.996;8.334;2022-07-26T05:39:20;100244.34;;;25.60
19061;BMP280;9663;48.996;8.334;2022-07-26T05:41:45;100249.34;;;25.63
19061;BMP280;9663;48.996;8.334;2022-07-26T05:44:11;100250.09;;;25.65
19061;BMP280;9663;48.996;8.334;2022-07-26T05:46:37;100253.84;;;25.74
19061;BMP280;9663;48.996;8.334;2022-07-26T05:49:03;100250.53;;;25.84
19061;BMP280;9663;48.996;8.334;2022-07-26T05:51:31;100249.81;;;25.94
19061;BMP280;9663;48.996;8.334;2022-07-26T05:53:57;100231.13;;;26.02
19061;BMP280;9663;48.996;8.334;2022-07-26T05:56:22;100246.00;;;26.12
19061;BMP280;9663;48.996;8.334;2022-07-26T05:58:48;100242.69;;;26.22
19061;BMP280;9663;48.996;8.334;2022-07-26T06:01:14;100250.81;;;26.30
19061;BMP280;9663;48.996;8.334;2022-07-26T06:03:39;100252.28;;;26.34
19061;BMP280;9663;48.996;8.334;2022-07-26T06:06:05;100244.38;;;26.36
19061;BMP280;9663;48.996;8.334;2022-07-26T06:08:33;100258.91;;;26.38
19061;BMP280;9663;48.996;8.334;2022-07-26T06:10:59;100259.97;;;26.36
19061;BMP280;9663;48.996;8.334;2022-07-26T06:13:25;100253.94;;;26.35
19061;BMP280;9663;48.996;8.334;2022-07-26T06:15:51;100256.84;;;26.43
19061;BMP280;9663;48.996;8.334;2022-07-26T06:18:16;100258.09;;;26.50
19061;BMP280;9663;48.996;8.334;2022-07-26T06:20:45;100254.75;;;26.61
19061;BMP280;9663;48.996;8.334;2022-07-26T06:23:14;100246.66;;;26.65
19061;BMP280;9663;48.996;8.334;2022-07-26T06:25:40;100239.56;;;26.67
19061;BMP280;9663;48.996;8.334;2022-07-26T06:28:08;100261.69;;;26.72
19061;BMP280;9663;48.996;8.334;2022-07-26T06:30:36;100247.16;;;26.70
19061;BMP280;9663;48.996;8.334;2022-07-26T06:33:03;100245.16;;;26.73
19061;BMP280;9663;48.996;8.334;2022-07-26T06:35:29;100249.00;;;26.80
19061;BMP280;9663;48.996;8.334;2022-07-26T06:37:57;100252.84;;;26.87
19061;BMP280;9663;48.996;8.334;2022-07-26T06:40:24;100256.78;;;26.93
19061;BMP280;9663;48.996;8.334;2022-07-26T06:42:50;100254.94;;;26.95
19061;BMP280;9663;48.996;8.334;2022-07-26T06:45:16;100249.63;;;26.96
19061;BMP280;9663;48.996;8.334;2022-07-26T06:47:42;100268.06;;;26.93
19061;BMP280;9663;48.996;8.334;2022-07-26T06:50:09;100268.16;;;26.92
19061;BMP280;9663;48.996;8.334;2022-07-26T06:52:35;100264.59;;;26.93
19061;BMP280;9663;48.996;8.334;2022-07-26T06:55:01;100260.34;;;26.92
19061;BMP280;9663;48.996;8.334;2022-07-26T06:57:28;100258.56;;;26.92
19061;BMP280;9663;48.996;8.334;2022-07-26T06:59:54;100258.78;;;26.89
19061;BMP280;9663;48.996;8.334;2022-07-26T07:02:19;100260.56;;;26.89
19061;BMP280;9663;48.996;8.334;2022-07-26T07:04:45;100252.09;;;26.85
19061;BMP280;9663;48.996;8.334;2022-07-26T07:07:11;100260.75;;;26.86
19061;BMP280;9663;48.996;8.334;2022-07-26T07:09:38;100255.75;;;26.83
19061;BMP280;9663;48.996;8.334;2022-07-26T07:12:06;100257.13;;;26.76
19061;BMP280;9663;48.996;8.334;2022-07-26T07:14:32;100265.78;;;27.12
19061;BMP280;9663;48.996;8.334;2022-07-26T07:16:59;100256.78;;;26.93
19061;BMP280;9663;48.996;8.334;2022-07-26T07:19:25;100256.69;;;26.94
19061;BMP280;9663;48.996;8.334;2022-07-26T07:21:51;100254.69;;;26.98
19061;BMP280;9663;48.996;8.334;2022-07-26T07:24:17;100256.97;;;27.02
19061;BMP280;9663;48.996;8.334;2022-07-26T07:26:43;100254.63;;;27.22
19061;BMP280;9663;48.996;8.334;2022-07-26T07:29:10;100252.56;;;27.15
19061;BMP280;9663;48.996;8.334;2022-07-26T07:31:42;100256.28;;;27.23
19061;BMP280;9663;48.996;8.334;2022-07-26T07:34:09;100255.25;;;27.26
19061;BMP280;9663;48.996;8.334;2022-07-26T07:36:35;100259.38;;;27.28
19061;BMP280;9663;48.996;8.334;2022-07-26T07:39:00;100256.56;;;27.31
19061;BMP280;9663;48.996;8.334;2022-07-26T07:41:26;100263.19;;;27.35
19061;BMP280;9663;48.996;8.334;2022-07-26T07:43:52;100256.75;;;27.41
19061;BMP280;9663;48.996;8.334;2022-07-26T07:46:17;100252.97;;;27.45
19061;BMP280;9663;48.996;8.334;2022-07-26T07:48:43;100251.16;;;27.45
19061;BMP280;9663;48.996;8.334;2022-07-26T07:51:10;100253.78;;;27.45
19061;BMP280;9663;48.996;8.334;2022-07-26T07:53:35;100258.28;;;28.00
19061;BMP280;9663;48.996;8.334;2022-07-26T07:56:01;100260.94;;;27.77
19061;BMP280;9663;48.996;8.334;2022-07-26T07:58:27;100261.16;;;27.74
19061;BMP280;9663;48.996;8.334;2022-07-26T08:00:53;100245.41;;;27.76
19061;BMP280;9663;48.996;8.334;2022-07-26T08:03:19;100252.06;;;27.80
19061;BMP280;9663;48.996;8.334;2022-07-26T08:05:47;100257.03;;;27.83
19061;BMP280;9663;48.996;8.334;2022-07-26T08:08:12;100249.97;;;27.85
19061;BMP280;9663;48.996;8.334;2022-07-26T08:10:38;100253.88;;;27.90
19061;BMP280;9663;48.996;8.334;2022-07-26T08:13:04;100251.41;;;27.99
19061;BMP280;9663;48.996;8.334;2022-07-26T08:15:29;100264.88;;;28.06
19061;BMP280;9663;48.996;8.334;2022-07-26T08:17:55;100256.91;;;28.07
19061;BMP280;9663;48.996;8.334;2022-07-26T08:20:21;100261.97;;;27.98
19061;BMP280;9663;48.996;8.334;2022-07-26T08:22:47;100259.47;;;27.96
19061;BMP280;9663;48.996;8.334;2022-07-26T08:25:12;100260.66;;;28.03
19061;BMP280;9663;48.996;8.334;2022-07-26T08:27:38;100270.78;;;28.08
19061;BMP280;9663;48.996;8.334;2022-07-26T08:30:04;100260.94;;;28.11
19061;BMP280;9663;48.996;8.334;2022-07-26T08:32:30;100257.03;;;28.17
19061;BMP280;9663;48.996;8.334;2022-07-26T08:34:56;100266.78;;;28.26
19061;BMP280;9663;48.996;8.334;2022-07-26T08:37:22;100266.06;;;28.35
19061;BMP280;9663;48.996;8.334;2022-07-26T08:39:48;100254.22;;;28.41
19061;BMP280;9663;48.996;8.334;2022-07-26T08:42:20;100268.94;;;28.53
19061;BMP280;9663;48.996;8.334;2022-07-26T08:44:48;100255.69;;;28.67
19061;BMP280;9663;48.996;8.334;2022-07-26T08:47:21;100253.09;;;28.78
19061;BMP280;9663;48.996;8.334;2022-07-26T08:49:47;100265.16;;;28.79
19061;BMP280;9663;48.996;8.334;2022-07-26T08:52:15;100270.03;;;28.83
19061;BMP280;9663;48.996;8.334;2022-07-26T08:54:50;100265.88;;;28.92
19061;BMP280;9663;48.996;8.334;2022-07-26T08:57:16;100258.38;;;28.98
19061;BMP280;9663;48.996;8.334;2022-07-26T08:59:42;100268.47;;;29.03
19061;BMP280;9663;48.996;8.334;2022-07-26T09:02:11;100252.09;;;29.01
19061;BMP280;9663;48.996;8.334;2022-07-26T09:04:44;100259.78;;;29.02
19061;BMP280;9663;48.996;8.334;2022-07-26T09:07:14;100263.47;;;29.11
19061;BMP280;9663;48.996;8.334;2022-07-26T09:10:02;100260.03;;;29.21
19061;BMP280;9663;48.996;8.334;2022-07-26T09:12:31;100256.19;;;29.36
19061;BMP280;9663;48.996;8.334;2022-07-26T09:14:58;100254.00;;;29.52
19061;BMP280;9663;48.996;8.334;2022-07-26T09:17:43;100258.91;;;29.66
19061;BMP280;9663;48.996;8.334;2022-07-26T09:20:13;100251.97;;;29.75
19061;BMP280;9663;48.996;8.334;2022-07-26T09:22:56;100260.38;;;29.90
19061;BMP280;9663;48.996;8.334;2022-07-26T09:25:24;100263.78;;;30.01
19061;BMP280;9663;48.996;8.334;2022-07-26T09:27:50;100259.94;;;30.05
19061;BMP280;9663;48.996;8.334;2022-07-26T09:30:17;100256.13;;;30.09
19061;BMP280;9663;48.996;8.334;2022-07-26T09:35:27;100257.56;;;30.22
19061;BMP280;9663;48.996;8.334;2022-07-26T09:37:53;100264.53;;;30.33
19061;BMP280;9663;48.996;8.334;2022-07-26T09:40:19;100254.44;;;30.49
19061;BMP280;9663;48.996;8.334;2022-07-26T09:43:05;100256.84;;;30.70
19061;BMP280;9663;48.996;8.334;2022-07-26T09:45:34;100242.47;;;30.85
19061;BMP280;9663;48.996;8.334;2022-07-26T09:48:02;100254.19;;;30.91
19061;BMP280;9663;48.996;8.334;2022-07-26T09:50:32;100247.75;;;30.95
19061;BMP280;9663;48.996;8.334;2022-07-26T09:53:10;100256.25;;;30.87
19061;BMP280;9663;48.996;8.334;2022-07-26T09:55:53;100257.13;;;30.67
19061;BMP280;9663;48.996;8.334;2022-07-26T09:58:21;100264.34;;;30.55
19061;BMP280;9663;48.996;8.334;2022-07-26T10:00:47;100271.91;;;30.48
19061;BMP280;9663;48.996;8.334;2022-07-26T10:03:13;100260.50;;;30.49
19061;BMP280;9663;48.996;8.334;2022-07-26T10:05:39;100266.53;;;30.50
19061;BMP280;9663;48.996;8.334;2022-07-26T10:08:06;100269.34;;;30.58
19061;BMP280;9663;48.996;8.334;2022-07-26T10:10:42;100269.94;;;30.70
19061;BMP280;9663;48.996;8.334;2022-07-26T10:13:10;100254.59;;;30.86
19061;BMP280;9663;48.996;8.334;2022-07-26T10:18:09;100264.59;;;31.11
19061;BMP280;9663;48.996;8.334;2022-07-26T10:20:46;100264.31;;;31.23
19061;BMP280;9663;48.996;8.334;2022-07-26T10:23:31;100262.00;;;31.30
19061;BMP280;9663;48.996;8.334;2022-07-26T10:25:59;100271.28;;;31.43
19061;BMP280;9663;48.996;8.334;2022-07-26T10:28:28;100257.50;;;31.60
19061;BMP280;9663;48.996;8.334;2022-07-26T10:31:24;100264.53;;;31.78
19061;BMP280;9663;48.996;8.334;2022-07-26T10:33:56;100257.66;;;31.96
19061;BMP280;9663;48.996;8.334;2022-07-26T10:36:32;100255.56;;;32.09
19061;BMP280;9663;48.996;8.334;2022-07-26T10:39:14;100264.53;;;32.06
19061;BMP280;9663;48.996;8.334;2022-07-26T10:41:45;100269.63;;;32.08
19061;BMP280;9663;48.996;8.334;2022-07-26T10:44:20;100262.56;;;32.18
19061;BMP280;9663;48.996;8.334;2022-07-26T10:52:24;100268.25;;;32.04
19061;BMP280;9663;48.996;8.334;2022-07-26T10:57:37;100265.63;;;32.04
19061;BMP280;9663;48.996;8.334;2022-07-26T11:00:22;100268.56;;;32.01
19061;BMP280;9663;48.996;8.334;2022-07-26T11:02:58;100267.59;;;31.92
19061;BMP280;9663;48.996;8.334;2022-07-26T11:05:29;100266.59;;;31.84
19061;BMP280;9663;48.996;8.334;2022-07-26T11:08:01;100266.31;;;31.87
19061;BMP280;9663;48.996;8.334;2022-07-26T11:10:47;100261.66;;;31.90
19061;BMP280;9663;48.996;8.334;2022-07-26T11:13:21;100263.19;;;31.93
19061;BMP280;9663;48.996;8.334;2022-07-26T11:16:03;100262.47;;;31.82
19061;BMP280;9663;48.996;8.334;2022-07-26T11:18:33;100252.53;;;31.76
19061;BMP280;9663;48.996;8.334;2022-07-26T11:21:14;100253.50;;;31.75
19061;BMP280;9663;48.996;8.334;2022-07-26T11:23:45;100255.13;;;31.85
19061;BMP280;9663;48.996;8.334;2022-07-26T11:26:21;100252.13;;;31.90
19061;BMP280;9663;48.996;8.334;2022-07-26T11:29:00;100245.59;;;31.84
19061;BMP280;9663;48.996;8.334;2022-07-26T11:31:46;100243.28;;;32.00
19061;BMP280;9663;48.996;8.334;2022-07-26T11:34:24;100248.34;;;32.66
19061;BMP280;9663;48.996;8.334;2022-07-26T11:36:53;100240.84;;;33.93
19061;BMP280;9663;48.996;8.334;2022-07-26T11:39:39;100232.88;;;35.67
19061;BMP280;9663;48.996;8.334;2022-07-26T11:42:12;100219.13;;;36.80
19061;BMP280;9663;48.996;8.334;2022-07-26T11:44:44;100223.28;;;37.58
19061;BMP280;9663;48.996;8.334;2022-07-26T11:47:17;100214.69;;;38.29
19061;BMP280;9663;48.996;8.334;2022-07-26T11:49:47;100213.50;;;38.74
19061;BMP280;9663;48.996;8.334;2022-07-26T11:52:15;100210.31;;;39.35
19061;BMP280;9663;48.996;8.334;2022-07-26T11:54:49;100214.41;;;39.79
19061;BMP280;9663;48.996;8.334;2022-07-26T11:57:16;100212.81;;;40.38
19061;BMP280;9663;48.996;8.334;2022-07-26T11:59:45;100206.47;;;40.33
19061;BMP280;9663;48.996;8.334;2022-07-26T12:02:13;100207.44;;;39.71
19061;BMP280;9663;48.996;8.334;2022-07-26T12:04:42;100211.75;;;38.95
19061;BMP280;9663;48.996;8.334;2022-07-26T12:07:16;100212.84;;;38.01
19061;BMP280;9663;48.996;8.334;2022-07-26T12:09:49;100224.59;;;37.09
19061;BMP280;9663;48.996;8.334;2022-07-26T12:12:27;100221.78;;;36.27
19061;BMP280;9663;48.996;8.334;2022-07-26T12:15:05;100227.94;;;35.87
19061;BMP280;9663;48.996;8.334;2022-07-26T12:17:32;100215.81;;;36.32
19061;BMP280;9663;48.996;8.334;2022-07-26T12:20:16;100210.75;;;37.29
19061;BMP280;9663;48.996;8.334;2022-07-26T12:22:54;100205.50;;;37.21
19061;BMP280;9663;48.996;8.334;2022-07-26T12:25:25;100210.69;;;36.85
19061;BMP280;9663;48.996;8.334;2022-07-26T12:27:51;100203.97;;;36.74
19061;BMP280;9663;48.996;8.334;2022-07-26T12:30:17;100214.06;;;35.93
19061;BMP280;9663;48.996;8.334;2022-07-26T12:32:45;100214.91;;;35.39
19061;BMP280;9663;48.996;8.334;2022-07-26T12:35:16;100217.78;;;35.04
19061;BMP280;9663;48.996;8.334;2022-07-26T12:40:20;100196.16;;;34.85
19061;BMP280;9663;48.996;8.334;2022-07-26T12:45:18;100196.81;;;34.53
19061;BMP280;9663;48.996;8.334;2022-07-26T12:47:46;100196.59;;;34.39
19061;BMP280;9663;48.996;8.334;2022-07-26T12:50:14;100200.00;;;34.32
19061;BMP280;9663;48.996;8.334;2022-07-26T12:52:41;100208.50;;;34.26
19061;BMP280;9663;48.996;8.334;2022-07-26T12:55:11;100202.69;;;34.14
19061;BMP280;9663;48.996;8.334;2022-07-26T12:57:39;100197.66;;;33.96
19061;BMP280;9663;48.996;8.334;2022-07-26T13:00:07;100199.81;;;33.83
19061;BMP280;9663;48.996;8.334;2022-07-26T13:02:34;100197.84;;;33.85
19061;BMP280;9663;48.996;8.334;2022-07-26T13:05:01;100194.41;;;34.68
19061;BMP280;9663;48.996;8.334;2022-07-26T13:07:28;100183.69;;;36.59
19061;BMP280;9663;48.996;8.334;2022-07-26T13:09:54;100172.59;;;38.19
19061;BMP280;9663;48.996;8.334;2022-07-26T13:12:20;100170.13;;;38.61
19061;BMP280;9663;48.996;8.334;2022-07-26T13:14:46;100166.47;;;38.19
19061;BMP280;9663;48.996;8.334;2022-07-26T13:17:13;100176.34;;;37.60
19061;BMP280;9663;48.996;8.334;2022-07-26T13:19:38;100171.94;;;37.00
19061;BMP280;9663;48.996;8.334;2022-07-26T13:22:06;100173.53;;;36.48
19061;BMP280;9663;48.996;8.334;2022-07-26T13:24:33;100179.75;;;36.01
19061;BMP280;9663;48.996;8.334;2022-07-26T13:26:59;100185.88;;;35.62
19061;BMP280;9663;48.996;8.334;2022-07-26T13:29:26;100174.84;;;35.35
19061;BMP280;9663;48.996;8.334;2022-07-26T13:31:52;100174.19;;;35.49
19061;BMP280;9663;48.996;8.334;2022-07-26T13:34:19;100163.63;;;35.73
19061;BMP280;9663;48.996;8.334;2022-07-26T13:36:45;100171.13;;;36.23
19061;BMP280;9663;48.996;8.334;2022-07-26T13:39:11;100168.44;;;37.29
19061;BMP280;9663;48.996;8.334;2022-07-26T13:41:37;100155.38;;;38.73
19061;BMP280;9663;48.996;8.334;2022-07-26T13:44:03;100155.09;;;39.92
19061;BMP280;9663;48.996;8.334;2022-07-26T13:46:29;100143.44;;;39.93
19061;BMP280;9663;48.996;8.334;2022-07-26T13:48:59;100145.66;;;39.36
19061;BMP280;9663;48.996;8.334;2022-07-26T13:51:28;100141.41;;;38.64
19061;BMP280;9663;48.996;8.334;2022-07-26T13:54:15;100143.53;;;37.83
19061;BMP280;9663;48.996;8.334;2022-07-26T13:56:42;100143.88;;;37.21
19061;BMP280;9663;48.996;8.334;2022-07-26T13:59:08;100151.47;;;36.64
19061;BMP280;9663;48.996;8.334;2022-07-26T14:01:34;100150.84;;;36.16
19061;BMP280;9663;48.996;8.334;2022-07-26T14:04:03;100148.94;;;35.70
19061;BMP280;9663;48.996;8.334;2022-07-26T14:06:28;100154.09;;;35.40
19061;BMP280;9663;48.996;8.334;2022-07-26T14:08:54;100147.63;;;35.19
19061;BMP280;9663;48.996;8.334;2022-07-26T14:11:20;100151.88;;;35.04
19061;BMP280;9663;48.996;8.334;2022-07-26T14:13:46;100151.84;;;34.88
19061;BMP280;9663;48.996;8.334;2022-07-26T14:16:12;100154.44;;;34.80
19061;BMP280;9663;48.996;8.334;2022-07-26T14:18:37;100151.41;;;35.00
19061;BMP280;9663;48.996;8.334;2022-07-26T14:21:03;100151.78;;;35.37
19061;BMP280;9663;48.996;8.334;2022-07-26T14:23:29;100147.47;;;35.68
19061;BMP280;9663;48.996;8.334;2022-07-26T14:25:55;100144.63;;;36.01
19061;BMP280;9663;48.996;8.334;2022-07-26T14:28:21;100141.94;;;36.63
19061;BMP280;9663;48.996;8.334;2022-07-26T14:30:47;100141.41;;;37.78
19061;BMP280;9663;48.996;8.334;2022-07-26T14:33:13;100137.16;;;39.26